Terminal Aerodrome Forecast
Issued by NWS

Home | Current Version | Previous Version | Text Only | Print | Product List | Glossary On
Versions: 1 2 3 4 5 6 7 8 9 10 11 12 13 14 15 16 17 18 19 20 21 22 23 24
000
FTAK31 PAFA 231143
TAFAFA
TAF
PAFA 231143Z 2312/2418 VRB03KT P6SM -SHRA BKN060 OVC090
     FM231600 26005KT P6SM VCSH BKN060
     FM240600 27008KT P6SM -RA BKN040=

USA.gov is the U.S. government's official web portal to all federal, state and local government web resources and services.